createdAt,value
2023-05-12T00:02:09.496Z,12.73
2023-05-12T00:04:40.399Z,12.77
2023-05-12T00:07:10.714Z,12.73
2023-05-12T00:09:38.961Z,12.79
2023-05-12T00:12:07.450Z,12.79
2023-05-12T00:14:36.298Z,12.74
2023-05-12T00:17:04.750Z,12.72
2023-05-12T00:19:33.287Z,12.71
2023-05-12T00:22:01.564Z,12.69
2023-05-12T00:24:31.214Z,12.71
2023-05-12T00:26:59.441Z,12.67
2023-05-12T00:29:27.861Z,12.69
2023-05-12T00:31:57.049Z,12.65
2023-05-12T00:34:25.479Z,12.69
2023-05-12T00:36:53.777Z,12.73
2023-05-12T00:39:22.365Z,12.72
2023-05-12T00:41:57.423Z,12.70
2023-05-12T00:44:26.063Z,12.74
2023-05-12T00:46:55.330Z,12.74
2023-05-12T00:49:23.751Z,12.72
2023-05-12T00:51:52.083Z,12.72
2023-05-12T00:54:20.519Z,12.76
2023-05-12T00:56:48.863Z,12.80
2023-05-12T00:59:19.105Z,12.75
2023-05-12T01:01:48.572Z,12.78
2023-05-12T01:04:17.807Z,12.73
2023-05-12T01:06:51.456Z,12.78
2023-05-12T01:09:20.945Z,12.84
2023-05-12T01:11:49.491Z,12.80
2023-05-12T01:14:21.265Z,12.78
2023-05-12T01:16:53.629Z,12.79
2023-05-12T01:19:35.296Z,12.79
2023-05-12T01:22:04.132Z,12.84
2023-05-12T01:24:35.407Z,12.84
2023-05-12T01:27:06.300Z,12.81
2023-05-12T01:29:35.219Z,12.86
2023-05-12T01:32:04.060Z,12.88
2023-05-12T01:34:35.064Z,12.91
2023-05-12T01:37:03.395Z,12.89
2023-05-12T01:39:31.891Z,12.85
2023-05-12T01:42:00.259Z,12.89
2023-05-12T01:44:30.114Z,12.86
2023-05-12T01:46:58.452Z,12.91
2023-05-12T01:49:27.145Z,12.84
2023-05-12T01:51:55.844Z,12.80
2023-05-12T01:54:29.999Z,12.82
2023-05-12T01:56:58.593Z,12.76
2023-05-12T01:59:27.855Z,12.74
2023-05-12T02:01:58.202Z,12.79
2023-05-12T02:04:31.239Z,12.74
2023-05-12T02:07:00.991Z,12.73
2023-05-12T02:09:29.467Z,12.78
2023-05-12T02:12:02.214Z,12.81
2023-05-12T02:14:30.840Z,12.79
2023-05-12T02:17:00.749Z,12.89
2023-05-12T02:19:30.474Z,12.73
2023-05-12T02:22:00.450Z,12.61
2023-05-12T02:24:28.750Z,12.28
2023-05-12T02:26:57.008Z,12.21
2023-05-12T02:29:26.085Z,12.17
2023-05-12T02:31:55.012Z,12.12
2023-05-12T02:34:24.877Z,12.10
2023-05-12T02:36:53.097Z,12.12
2023-05-12T02:39:21.363Z,12.12
2023-05-12T02:41:49.658Z,12.12
2023-05-12T02:44:18.593Z,12.17
2023-05-12T02:46:47.016Z,12.16
2023-05-12T02:49:15.209Z,12.14
2023-05-12T02:51:44.852Z,12.18
2023-05-12T02:54:13.092Z,12.16
2023-05-12T02:56:41.482Z,12.07
2023-05-12T02:59:09.687Z,12.05
2023-05-12T03:01:38.036Z,12.01
2023-05-12T03:04:06.329Z,12.04
2023-05-12T03:06:34.643Z,11.97
2023-05-12T03:09:04.372Z,11.92
2023-05-12T03:11:33.040Z,11.94
2023-05-12T03:14:01.431Z,11.91
2023-05-12T03:16:30.222Z,11.90
2023-05-12T03:18:58.684Z,11.92
2023-05-12T03:21:29.035Z,11.85
2023-05-12T03:23:58.032Z,11.87
2023-05-12T03:26:28.758Z,11.79
2023-05-12T03:28:57.110Z,11.78
2023-05-12T03:31:25.283Z,11.78
2023-05-12T03:33:53.524Z,11.74
2023-05-12T03:36:21.811Z,11.73
2023-05-12T03:38:50.038Z,11.73
2023-05-12T03:41:18.315Z,11.70
2023-05-12T03:43:47.969Z,11.63
2023-05-12T03:46:17.210Z,11.60
2023-05-12T03:48:45.500Z,11.46
2023-05-12T03:51:14.081Z,11.36
2023-05-12T03:53:45.382Z,11.26
2023-05-12T03:56:15.666Z,11.27
2023-05-12T03:58:44.097Z,11.27
2023-05-12T04:01:13.757Z,11.23
2023-05-12T04:03:42.195Z,11.33
2023-05-12T04:06:10.606Z,11.31
2023-05-12T04:08:41.673Z,11.32
2023-05-12T04:11:10.739Z,11.36
2023-05-12T04:13:38.995Z,11.34
2023-05-12T04:16:07.550Z,11.38
2023-05-12T04:18:37.117Z,11.36
2023-05-12T04:21:05.582Z,11.39
2023-05-12T04:23:34.031Z,11.33
2023-05-12T04:26:05.362Z,11.22
2023-05-12T04:28:33.768Z,11.20
2023-05-12T04:31:04.660Z,11.19
2023-05-12T04:33:33.469Z,11.16
2023-05-12T04:36:03.164Z,11.20
2023-05-12T04:38:31.355Z,11.11
2023-05-12T04:41:00.262Z,11.11
2023-05-12T04:46:00.517Z,11.05
2023-05-12T04:48:30.032Z,11.04
2023-05-12T04:51:00.506Z,11.12
2023-05-12T04:53:34.613Z,11.09
2023-05-12T04:56:03.234Z,11.15
2023-05-12T04:58:36.350Z,11.14
2023-05-12T05:01:04.912Z,11.11
2023-05-12T05:03:34.686Z,11.18
2023-05-12T05:06:03.153Z,11.07
2023-05-12T05:08:32.774Z,11.04
2023-05-12T05:11:00.997Z,11.03
2023-05-12T05:13:31.504Z,11.01
2023-05-12T05:15:59.754Z,10.95
2023-05-12T05:18:29.181Z,10.98
2023-05-12T05:20:59.072Z,10.88
2023-05-12T05:23:28.009Z,10.89
2023-05-12T05:25:57.936Z,10.84
2023-05-12T05:28:26.727Z,10.94
2023-05-12T05:30:55.051Z,10.81
2023-05-12T05:33:23.606Z,10.85
2023-05-12T05:35:52.209Z,10.82
2023-05-12T05:38:21.012Z,10.79
2023-05-12T05:40:53.758Z,10.80
2023-05-12T05:43:24.827Z,10.81
2023-05-12T05:45:55.876Z,10.83
2023-05-12T05:48:24.335Z,10.85
2023-05-12T05:50:53.261Z,10.83
2023-05-12T05:53:23.536Z,10.85
2023-05-12T05:55:53.679Z,10.85
2023-05-12T05:58:22.435Z,10.93
2023-05-12T06:00:52.216Z,10.86
2023-05-12T06:03:20.501Z,10.89
2023-05-12T06:05:49.847Z,10.89
2023-05-12T06:08:18.355Z,10.96
2023-05-12T06:10:46.679Z,10.89
2023-05-12T06:13:14.966Z,10.90
2023-05-12T06:15:43.621Z,10.96
2023-05-12T06:18:14.744Z,10.99
2023-05-12T06:20:43.295Z,11.02
2023-05-12T06:23:11.864Z,11.04
2023-05-12T06:25:40.250Z,11.05
2023-05-12T06:28:08.559Z,11.00
2023-05-12T06:30:36.769Z,11.10
2023-05-12T06:33:05.094Z,11.08
2023-05-12T06:35:34.785Z,11.07
2023-05-12T06:38:07.490Z,11.12
2023-05-12T06:40:35.690Z,11.17
2023-05-12T06:43:04.115Z,11.17
2023-05-12T06:45:36.698Z,11.19
2023-05-12T06:48:05.991Z,11.18
2023-05-12T06:50:35.881Z,11.20
2023-05-12T06:53:06.173Z,11.23
2023-05-12T06:55:34.402Z,11.29
2023-05-12T06:58:03.095Z,11.36
2023-05-12T07:00:31.288Z,11.37
2023-05-12T07:02:59.518Z,11.41
2023-05-12T07:05:28.120Z,11.45
2023-05-12T07:07:57.724Z,11.53
2023-05-12T07:10:26.001Z,11.57
2023-05-12T07:12:54.383Z,11.55
2023-05-12T07:15:22.949Z,11.56
2023-05-12T07:17:51.457Z,11.59
2023-05-12T07:20:19.733Z,11.61
2023-05-12T07:22:47.985Z,11.69
2023-05-12T07:25:17.826Z,11.73
2023-05-12T07:27:46.266Z,11.78
2023-05-12T07:30:14.967Z,11.88
2023-05-12T07:32:43.291Z,11.86
2023-05-12T07:35:11.743Z,11.85
2023-05-12T07:37:39.923Z,11.84
2023-05-12T07:40:09.584Z,11.88
2023-05-12T07:42:39.198Z,11.88
2023-05-12T07:45:08.401Z,11.91
2023-05-12T07:47:36.591Z,11.94
2023-05-12T07:50:04.935Z,12.02
2023-05-12T07:52:33.278Z,12.01
2023-05-12T07:55:01.579Z,12.00
2023-05-12T07:57:29.794Z,12.07
2023-05-12T07:59:59.648Z,12.12
2023-05-12T08:02:27.919Z,12.15
2023-05-12T08:04:56.167Z,12.15
2023-05-12T08:07:24.450Z,12.20
2023-05-12T08:09:52.681Z,12.32
2023-05-12T08:12:21.695Z,12.40
2023-05-12T08:14:49.908Z,12.40
2023-05-12T08:17:19.662Z,12.43
2023-05-12T08:19:47.992Z,12.62
2023-05-12T08:22:16.222Z,12.65
2023-05-12T08:24:44.488Z,12.67
2023-05-12T08:27:12.789Z,12.88
2023-05-12T08:29:41.037Z,12.82
2023-05-12T08:32:09.274Z,12.96
2023-05-12T08:34:38.961Z,12.99
2023-05-12T08:37:07.767Z,13.02
2023-05-12T08:39:36.296Z,13.05
2023-05-12T08:42:13.611Z,13.04
2023-05-12T08:44:42.019Z,12.99
2023-05-12T08:47:12.949Z,12.93
2023-05-12T08:49:45.077Z,13.00
2023-05-12T08:52:18.388Z,13.19
2023-05-12T08:54:55.522Z,13.46
2023-05-12T08:57:26.908Z,13.81
2023-05-12T08:59:59.310Z,14.12
2023-05-12T09:02:41.030Z,14.22
2023-05-12T09:05:14.729Z,14.48
2023-05-12T09:07:44.946Z,14.81
2023-05-12T09:10:32.334Z,14.79
2023-05-12T09:13:05.248Z,15.07
2023-05-12T09:15:37.459Z,14.97
2023-05-12T09:18:06.121Z,15.45
2023-05-12T09:20:36.147Z,14.97
2023-05-12T09:23:17.263Z,15.26
2023-05-12T09:25:47.060Z,15.31
2023-05-12T09:28:15.791Z,15.61
2023-05-12T09:30:44.058Z,15.69
2023-05-12T09:33:14.022Z,15.78
2023-05-12T09:35:45.200Z,15.84
2023-05-12T09:38:14.645Z,15.48
2023-05-12T09:40:43.590Z,15.59
2023-05-12T09:43:15.068Z,15.54
2023-05-12T09:45:44.099Z,15.71
2023-05-12T09:48:14.406Z,15.73
2023-05-12T09:50:51.569Z,15.86
2023-05-12T09:53:22.894Z,16.03
2023-05-12T09:55:51.255Z,16.00
2023-05-12T09:58:20.742Z,16.13
2023-05-12T10:03:22.980Z,15.95
2023-05-12T10:05:58.715Z,15.78
2023-05-12T10:08:33.768Z,15.91
2023-05-12T10:11:03.310Z,15.76
2023-05-12T10:13:32.867Z,15.70
2023-05-12T10:16:01.624Z,15.87
2023-05-12T10:18:30.504Z,16.11
2023-05-12T10:21:01.769Z,16.60
2023-05-12T10:23:30.188Z,17.11
2023-05-12T10:26:02.241Z,17.25
2023-05-12T10:28:30.838Z,17.26
2023-05-12T10:31:00.064Z,16.95
2023-05-12T10:33:28.544Z,16.62
2023-05-12T10:35:57.218Z,16.57
2023-05-12T10:38:27.150Z,16.58
2023-05-12T10:40:58.148Z,16.69
2023-05-12T10:43:27.632Z,16.85
2023-05-12T10:46:09.920Z,17.22
2023-05-12T10:48:39.324Z,17.67
2023-05-12T10:51:11.249Z,17.32
2023-05-12T10:53:50.188Z,16.57
2023-05-12T10:56:25.501Z,15.91
2023-05-12T10:59:15.071Z,16.04
2023-05-12T11:01:58.898Z,16.15
2023-05-12T11:04:40.726Z,16.62
2023-05-12T11:07:10.414Z,17.62
2023-05-12T11:09:56.101Z,18.66
2023-05-12T11:12:27.703Z,18.17
2023-05-12T11:14:56.285Z,17.37
2023-05-12T11:17:24.608Z,16.80
2023-05-12T11:19:52.940Z,16.34
2023-05-12T11:22:22.508Z,16.79
2023-05-12T11:24:53.345Z,16.36
2023-05-12T11:27:23.050Z,16.01
2023-05-12T11:29:58.979Z,15.91
2023-05-12T11:32:27.574Z,15.98
2023-05-12T11:34:55.950Z,16.10
2023-05-12T11:37:24.442Z,17.03
2023-05-12T11:39:54.040Z,17.10
2023-05-12T11:42:24.408Z,17.09
2023-05-12T11:44:55.530Z,17.15
2023-05-12T11:47:23.921Z,16.95
2023-05-12T11:49:53.244Z,17.55
2023-05-12T11:52:22.985Z,18.43
2023-05-12T11:54:52.123Z,19.33
2023-05-12T11:57:28.784Z,18.78
2023-05-12T12:00:01.911Z,18.53
2023-05-12T12:02:35.953Z,17.96
2023-05-12T12:05:06.473Z,18.87
2023-05-12T12:07:37.546Z,19.47
2023-05-12T12:10:13.281Z,19.00
2023-05-12T12:12:43.573Z,19.54
2023-05-12T12:15:13.158Z,19.35
2023-05-12T12:17:41.488Z,18.95
2023-05-12T12:20:10.665Z,18.42
2023-05-12T12:22:39.094Z,18.24
2023-05-12T12:25:08.593Z,18.61
2023-05-12T12:27:36.841Z,18.66
2023-05-12T12:30:07.670Z,18.94
2023-05-12T12:32:35.921Z,18.83
2023-05-12T12:35:06.731Z,18.46
2023-05-12T12:37:34.973Z,18.05
2023-05-12T12:40:08.126Z,18.02
2023-05-12T12:42:37.210Z,18.22
2023-05-12T12:45:10.000Z,19.51
2023-05-12T12:47:38.918Z,19.77
2023-05-12T12:50:10.006Z,19.33
2023-05-12T12:52:39.072Z,18.97
2023-05-12T12:55:08.701Z,19.13
2023-05-12T12:57:36.916Z,19.28
2023-05-12T13:00:08.628Z,19.71
2023-05-12T13:02:37.246Z,19.12
2023-05-12T13:05:07.161Z,18.81
2023-05-12T13:07:35.586Z,18.56
2023-05-12T13:10:03.959Z,18.65
2023-05-12T13:12:32.672Z,18.64
2023-05-12T13:15:02.205Z,18.43
2023-05-12T13:17:34.734Z,18.48
2023-05-12T13:20:03.995Z,18.77
2023-05-12T13:22:32.544Z,19.59
2023-05-12T13:25:00.976Z,19.35
2023-05-12T13:27:29.419Z,19.65
2023-05-12T13:29:57.658Z,19.15
2023-05-12T13:32:25.886Z,18.83
2023-05-12T13:34:55.707Z,19.26
2023-05-12T13:37:24.106Z,18.95
2023-05-12T13:42:06.342Z,20.87
2023-05-12T13:44:34.782Z,19.22
2023-05-12T13:47:03.303Z,18.38
2023-05-12T13:49:31.540Z,18.02
2023-05-12T13:51:59.850Z,18.00
2023-05-12T13:54:28.117Z,18.24
2023-05-12T13:56:56.414Z,18.54
2023-05-12T13:59:26.161Z,18.32
2023-05-12T14:01:54.987Z,18.61
2023-05-12T14:04:23.184Z,20.42
2023-05-12T14:06:51.708Z,20.86
2023-05-12T14:09:20.032Z,20.76
2023-05-12T14:11:48.203Z,20.13
2023-05-12T14:14:16.480Z,19.54
2023-05-12T14:18:06.690Z,20.09
2023-05-12T14:20:35.540Z,19.26
2023-05-12T14:23:03.822Z,20.20
2023-05-12T14:25:32.000Z,20.41
2023-05-12T14:28:00.283Z,20.35
2023-05-12T14:30:28.740Z,19.82
2023-05-12T14:32:57.041Z,19.29
2023-05-12T14:35:27.794Z,19.12
2023-05-12T14:37:56.613Z,18.78
2023-05-12T14:40:25.067Z,18.65
2023-05-12T14:42:53.578Z,18.50
2023-05-12T14:45:22.142Z,18.36
2023-05-12T14:47:50.754Z,18.34
2023-05-12T14:50:20.027Z,18.41
2023-05-12T14:52:50.108Z,18.53
2023-05-12T14:55:18.465Z,18.88
2023-05-12T14:57:47.882Z,18.83
2023-05-12T15:00:16.914Z,18.83
2023-05-12T15:02:46.181Z,18.73
2023-05-12T15:05:14.632Z,18.65
2023-05-12T15:07:43.100Z,18.44
2023-05-12T15:10:13.022Z,18.37
2023-05-12T15:12:41.263Z,18.58
2023-05-12T15:15:11.791Z,18.64
2023-05-12T15:17:40.405Z,18.57
2023-05-12T15:20:10.045Z,18.59
2023-05-12T15:22:38.472Z,18.92
2023-05-12T15:25:07.888Z,20.18
2023-05-12T15:27:37.516Z,21.14
2023-05-12T15:30:07.197Z,20.90
2023-05-12T15:32:38.602Z,20.11
2023-05-12T15:35:07.898Z,20.24
2023-05-12T15:37:36.834Z,20.70
2023-05-12T15:40:05.567Z,20.96
2023-05-12T15:42:33.846Z,20.99
2023-05-12T15:45:03.728Z,20.54
2023-05-12T15:47:32.175Z,19.91
2023-05-12T15:50:00.692Z,20.87
2023-05-12T15:52:28.958Z,21.82
2023-05-12T15:54:57.314Z,21.00
2023-05-12T15:57:25.579Z,20.94
2023-05-12T15:59:58.739Z,22.48
2023-05-12T16:02:28.407Z,24.03
2023-05-12T16:04:56.624Z,24.65
2023-05-12T16:07:29.385Z,23.73
2023-05-12T16:09:57.836Z,24.60
2023-05-12T16:12:26.210Z,24.61
2023-05-12T16:14:54.483Z,23.06
2023-05-12T16:17:23.132Z,21.91
2023-05-12T16:19:53.599Z,20.71
2023-05-12T16:22:21.908Z,20.19
2023-05-12T16:24:50.258Z,19.87
2023-05-12T16:27:18.508Z,19.59
2023-05-12T16:29:49.521Z,19.46
2023-05-12T16:32:18.127Z,19.23
2023-05-12T16:34:46.693Z,19.22
2023-05-12T16:37:16.293Z,19.24
2023-05-12T16:39:44.564Z,19.10
2023-05-12T16:42:13.175Z,19.06
2023-05-12T16:44:41.582Z,18.97
2023-05-12T16:47:09.906Z,19.06
2023-05-12T16:49:38.114Z,19.12
2023-05-12T16:52:06.721Z,19.21
2023-05-12T16:54:36.401Z,19.20
2023-05-12T16:57:05.002Z,19.15
2023-05-12T16:59:33.251Z,19.25
2023-05-12T17:02:02.111Z,19.18
2023-05-12T17:04:30.562Z,19.01
2023-05-12T17:06:58.987Z,19.00
2023-05-12T17:09:27.161Z,19.01
2023-05-12T17:11:56.747Z,18.71
2023-05-12T17:14:24.963Z,18.79
2023-05-12T17:16:53.174Z,18.83
2023-05-12T17:19:22.198Z,18.76
2023-05-12T17:21:50.495Z,18.83
2023-05-12T17:24:18.794Z,18.91
2023-05-12T17:26:47.197Z,18.92
2023-05-12T17:29:17.030Z,18.86
2023-05-12T17:31:45.401Z,18.82
2023-05-12T17:34:13.691Z,18.83
2023-05-12T17:36:42.129Z,18.76
2023-05-12T17:39:10.586Z,18.77
2023-05-12T17:41:38.831Z,18.66
2023-05-12T17:44:07.231Z,18.64
2023-05-12T17:46:36.962Z,18.56
2023-05-12T17:49:05.367Z,18.68
2023-05-12T17:51:33.652Z,18.68
2023-05-12T17:54:03.740Z,18.64
2023-05-12T17:56:32.070Z,18.46
2023-05-12T17:59:00.316Z,18.58
2023-05-12T18:01:28.888Z,18.62
2023-05-12T18:03:58.602Z,18.61
2023-05-12T18:06:27.031Z,18.44
2023-05-12T18:08:56.586Z,18.34
2023-05-12T18:11:24.896Z,18.28
2023-05-12T18:13:53.814Z,18.18
2023-05-12T18:16:28.554Z,18.06
2023-05-12T18:18:58.905Z,17.98
2023-05-12T18:21:27.266Z,17.96
2023-05-12T18:23:55.517Z,17.90
2023-05-12T18:26:23.935Z,18.00
2023-05-12T18:28:52.475Z,18.04
2023-05-12T18:31:20.839Z,18.13
2023-05-12T18:33:50.020Z,18.24
2023-05-12T18:36:20.334Z,18.17
2023-05-12T18:38:48.675Z,18.06
2023-05-12T18:41:16.859Z,17.95
2023-05-12T18:43:45.194Z,17.83
2023-05-12T18:46:13.574Z,17.83
2023-05-12T18:48:41.841Z,17.75
2023-05-12T18:51:10.175Z,17.73
2023-05-12T18:53:39.773Z,17.73
2023-05-12T18:56:08.004Z,17.58
2023-05-12T18:58:36.246Z,17.44
2023-05-12T19:01:05.277Z,17.39
2023-05-12T19:03:35.123Z,17.23
2023-05-12T19:06:03.307Z,17.14
2023-05-12T19:08:31.535Z,17.20
2023-05-12T19:11:01.163Z,17.20
2023-05-12T19:13:29.468Z,17.09
2023-05-12T19:15:57.760Z,17.04
2023-05-12T19:18:26.083Z,17.11
2023-05-12T19:20:54.373Z,17.03
2023-05-12T19:23:24.372Z,16.95
2023-05-12T19:25:52.591Z,16.88
2023-05-12T19:28:22.368Z,16.76
2023-05-12T19:30:50.855Z,16.72
2023-05-12T19:33:19.140Z,16.65
2023-05-12T19:35:47.430Z,16.57
2023-05-12T19:38:15.731Z,16.58
2023-05-12T19:40:43.957Z,16.45
2023-05-12T19:43:12.663Z,16.42
2023-05-12T19:45:42.471Z,16.37
2023-05-12T19:48:11.191Z,16.27
2023-05-12T19:50:39.560Z,16.30
2023-05-12T19:53:07.821Z,16.22
2023-05-12T19:55:36.515Z,16.13
2023-05-12T19:58:04.769Z,16.10
2023-05-12T20:00:33.041Z,16.06
2023-05-12T20:03:04.754Z,15.95
2023-05-12T20:05:33.423Z,15.86
2023-05-12T20:08:01.657Z,15.83
2023-05-12T20:10:29.978Z,15.73
2023-05-12T20:12:58.189Z,15.71
2023-05-12T20:15:26.413Z,15.68
2023-05-12T20:17:54.673Z,15.70
2023-05-12T20:20:24.368Z,15.71
2023-05-12T20:22:52.734Z,15.66
2023-05-12T20:25:21.235Z,15.69
2023-05-12T20:27:50.039Z,15.66
2023-05-12T20:30:18.363Z,15.67
2023-05-12T20:32:48.809Z,15.67
2023-05-12T20:35:17.816Z,15.67
2023-05-12T20:37:47.602Z,15.63
2023-05-12T20:40:16.175Z,15.65
2023-05-12T20:42:46.510Z,15.66
2023-05-12T20:45:15.747Z,15.66
2023-05-12T20:47:44.025Z,15.59
2023-05-12T20:50:12.729Z,15.57
2023-05-12T20:52:42.106Z,15.56
2023-05-12T20:55:11.800Z,15.54
2023-05-12T20:57:40.232Z,15.56
2023-05-12T21:00:10.764Z,15.49
2023-05-12T21:02:39.432Z,15.52
2023-05-12T21:05:08.142Z,15.48
2023-05-12T21:07:36.347Z,15.48
2023-05-12T21:10:05.154Z,15.46
2023-05-12T21:12:34.797Z,15.45
2023-05-12T21:15:03.095Z,15.44
2023-05-12T21:17:32.426Z,15.42
2023-05-12T21:20:00.637Z,15.37
2023-05-12T21:22:28.919Z,15.33
2023-05-12T21:24:57.351Z,15.27
2023-05-12T21:27:25.585Z,15.28
2023-05-12T21:29:55.433Z,15.27
2023-05-12T21:32:23.850Z,15.27
2023-05-12T21:34:52.265Z,15.27
2023-05-12T21:37:20.521Z,15.29
2023-05-12T21:39:48.984Z,15.44
2023-05-12T21:42:17.204Z,15.45
2023-05-12T21:44:45.446Z,15.55
2023-05-12T21:47:15.115Z,15.52
2023-05-12T21:49:43.412Z,15.51
2023-05-12T21:52:12.100Z,15.53
2023-05-12T21:54:40.445Z,15.56
2023-05-12T21:57:08.662Z,15.53
2023-05-12T21:59:36.899Z,15.46
2023-05-12T22:02:05.278Z,15.42
2023-05-12T22:04:35.998Z,15.44
2023-05-12T22:07:04.330Z,15.39
2023-05-12T22:09:32.629Z,15.38
2023-05-12T22:12:00.829Z,15.36
2023-05-12T22:14:29.030Z,15.30
2023-05-12T22:16:57.771Z,15.25
2023-05-12T22:19:26.056Z,15.23
2023-05-12T22:21:57.091Z,15.21
2023-05-12T22:24:25.415Z,15.14
2023-05-12T22:26:53.624Z,15.11
2023-05-12T22:29:21.849Z,15.15
2023-05-12T22:31:50.178Z,15.09
2023-05-12T22:34:18.448Z,15.10
2023-05-12T22:36:46.838Z,15.01
2023-05-12T22:39:16.501Z,15.04
2023-05-12T22:41:44.733Z,15.06
2023-05-12T22:44:12.927Z,14.99
2023-05-12T22:46:41.175Z,14.98
2023-05-12T22:49:09.519Z,15.07
2023-05-12T22:51:37.711Z,14.96
2023-05-12T22:54:05.978Z,14.93
2023-05-12T22:56:35.726Z,14.87
2023-05-12T22:59:03.949Z,14.69
2023-05-12T23:01:32.202Z,14.72
2023-05-12T23:04:00.507Z,14.68
2023-05-12T23:06:28.731Z,14.66
2023-05-12T23:08:57.001Z,14.64
2023-05-12T23:11:25.700Z,14.60
2023-05-12T23:13:55.428Z,14.51
2023-05-12T23:16:24.533Z,14.47
2023-05-12T23:18:52.888Z,14.37
2023-05-12T23:21:21.099Z,14.35
2023-05-12T23:23:49.277Z,14.26
2023-05-12T23:26:17.570Z,14.30
2023-05-12T23:28:45.744Z,14.22
2023-05-12T23:31:15.930Z,14.23
2023-05-12T23:33:44.260Z,14.14
2023-05-12T23:36:13.461Z,14.14
2023-05-12T23:38:42.035Z,14.07
2023-05-12T23:41:10.283Z,14.04
2023-05-12T23:43:39.038Z,13.99
2023-05-12T23:46:07.306Z,14.00
2023-05-12T23:48:37.364Z,13.93
2023-05-12T23:51:05.607Z,14.00
2023-05-12T23:53:34.068Z,14.03
2023-05-12T23:56:03.053Z,14.00
2023-05-12T23:58:31.514Z,13.97
